»·PEaware :: DAL1443 KIAH-KATL

DAL1443 :: KIAH-KATL

FLIGHT INFORMATION

Flight Status: Arrived
Operator:
Delta Air Lines
More flights by this operator :: More flights under this callsign
Pilot: Daniel C. (12704)
Aircraft: BOEING 717-200
(B712)
More flights by this aircraft type
Origin: KIAH G Bush Intercontinental/Houst
United States
Destination: KATL Hartsfield-Jackson Atlanta
United States
More flights between these airports :: More routes between these airports
Route: MMUGS4 LCH Q24 PAYTN HOLEE RAGGZ1
File this flight plan on PilotEdge
Remarks: / L
Altitude:
(Current/Filed)
330ft
Speed:
(Current/Filed)
480kts
Departed: 15-Jul-17 07:55 AM
Arrived: 15-Jul-17 09:39 AM
Distance/Time
Traveled:
597nm/1:44
Distance/Time
To Go:
Arrived

Flight Plot

Page will automatically refresh every two minutes.

Flight plan parsing failed; only flown route is shown


Map Options




Map Legend


Flown Route
Filed Route
Departure Airport
Arrival Airport
Navaid (VOR, NDB)
Fix

Horizontal Profiles

Position Reports

Time Latitude Longitude Heading Altitude Ground
Speed
15-Jul-17 07:36 29.989888 -95.338420 229 105ft 0kts
15-Jul-17 07:37 29.989888 -95.338420 229 105ft 0kts
15-Jul-17 07:38 29.989888 -95.338420 229 105ft 0kts
15-Jul-17 07:39 29.989888 -95.338420 229 105ft 0kts
15-Jul-17 07:40 29.989888 -95.338420 229 105ft 0kts
15-Jul-17 07:41 29.989888 -95.338420 229 105ft 0kts
15-Jul-17 07:42 29.989888 -95.338420 229 105ft 0kts
15-Jul-17 07:43 29.989888 -95.338420 229 105ft 0kts
15-Jul-17 07:44 29.989888 -95.338420 229 105ft 0kts
15-Jul-17 07:45 29.989888 -95.338420 229 105ft 0kts
15-Jul-17 07:46 29.989888 -95.338420 229 105ft 0kts
15-Jul-17 07:47 29.989888 -95.338420 229 105ft 0kts
15-Jul-17 07:48 29.989923 -95.338372 229 105ft 1kts
15-Jul-17 07:49 29.990153 -95.338056 229 105ft 0kts
15-Jul-17 07:50 29.990153 -95.338056 229 105ft 0kts
15-Jul-17 07:51 29.990153 -95.338057 229 105ft 0kts
15-Jul-17 07:52 29.990152 -95.338058 229 105ft 0kts
15-Jul-17 07:53 29.990781 -95.341147 264 105ft 22kts
15-Jul-17 07:54 29.990746 -95.346280 270 105ft 25kts
15-Jul-17 07:55 29.990772 -95.351934 271 105ft 17kts
15-Jul-17 07:56 29.988940 -95.355258 228 106ft 6kts
15-Jul-17 07:57 29.987316 -95.356938 233 106ft 9kts
15-Jul-17 07:58 29.984001 -95.355407 153 106ft 74kts
15-Jul-17 07:59 29.947210 -95.328742 130 1412ft 176kts
15-Jul-17 08:00 29.916285 -95.282086 127 3776ft 204kts
15-Jul-17 08:01 29.877591 -95.221153 126 5649ft 263kts
15-Jul-17 08:02 29.827223 -95.134594 108 8136ft 288kts
15-Jul-17 08:03 29.819965 -95.041333 91 10522ft 299kts
15-Jul-17 08:04 29.824656 -94.956560 73 11430ft 352kts
15-Jul-17 08:05 29.855433 -94.840061 72 12232ft 395kts
15-Jul-17 08:06 29.887655 -94.717715 72 13909ft 403kts
15-Jul-17 08:07 29.916263 -94.609170 72 15344ft 410kts
15-Jul-17 08:08 29.949712 -94.481832 72 16968ft 418kts
15-Jul-17 08:09 29.983485 -94.352687 72 18496ft 425kts
15-Jul-17 08:10 30.006671 -94.217789 81 19792ft 434kts
15-Jul-17 08:11 30.023400 -94.078064 81 20960ft 442kts
15-Jul-17 08:12 30.040782 -93.936448 80 21989ft 450kts
15-Jul-17 08:13 30.056363 -93.810684 80 22819ft 456kts
15-Jul-17 08:14 30.074344 -93.664347 80 23670ft 462kts
15-Jul-17 08:15 30.092336 -93.516549 80 24436ft 468kts
15-Jul-17 08:16 30.110368 -93.366987 81 25113ft 473kts
15-Jul-17 08:17 30.128470 -93.215330 81 25724ft 478kts
15-Jul-17 08:18 30.149539 -93.063554 76 26389ft 479kts
15-Jul-17 08:19 30.179137 -92.913741 76 27170ft 478kts
15-Jul-17 08:20 30.208384 -92.763721 76 28003ft 477kts
15-Jul-17 08:21 30.237282 -92.614570 76 28873ft 475kts
15-Jul-17 08:22 30.265990 -92.465443 76 29775ft 473kts
15-Jul-17 08:23 30.294289 -92.317478 76 30686ft 470kts
15-Jul-17 08:24 30.322309 -92.170030 76 31600ft 468kts
15-Jul-17 08:25 30.350120 -92.022723 76 32510ft 466kts
15-Jul-17 08:26 30.377517 -91.876668 76 33115ft 465kts
15-Jul-17 08:27 30.404708 -91.730760 76 33121ft 464kts
15-Jul-17 08:28 30.431869 -91.584057 76 33122ft 465kts
15-Jul-17 08:29 30.458825 -91.437506 76 33121ft 466kts
15-Jul-17 08:30 30.485975 -91.290641 75 33118ft 466kts
15-Jul-17 08:31 30.519376 -91.144751 74 33115ft 467kts
15-Jul-17 08:32 30.552667 -90.999193 74 33118ft 467kts
15-Jul-17 08:33 30.585789 -90.853584 74 33120ft 467kts
15-Jul-17 08:34 30.618886 -90.707270 74 33122ft 468kts
15-Jul-17 08:35 30.651718 -90.561307 74 33124ft 468kts
15-Jul-17 08:36 30.684495 -90.414760 74 33126ft 468kts
15-Jul-17 08:37 30.717009 -90.268555 74 33127ft 468kts
15-Jul-17 08:38 30.749373 -90.122192 74 33129ft 468kts
15-Jul-17 08:39 30.781682 -89.975231 74 33133ft 468kts
15-Jul-17 08:40 30.813741 -89.828555 74 33138ft 468kts
15-Jul-17 08:41 30.845686 -89.681550 74 33133ft 469kts
15-Jul-17 08:42 30.877573 -89.533937 74 33127ft 469kts
15-Jul-17 08:43 30.909260 -89.386387 75 33125ft 470kts
15-Jul-17 08:44 30.940773 -89.238765 75 33121ft 470kts
15-Jul-17 08:45 30.972252 -89.090424 75 33119ft 471kts
15-Jul-17 08:46 31.004733 -88.942643 68 33116ft 470kts
15-Jul-17 08:47 31.063041 -88.806541 61 33119ft 470kts
15-Jul-17 08:48 31.123383 -88.670628 61 33119ft 471kts
15-Jul-17 08:49 31.183474 -88.534806 61 33118ft 472kts
15-Jul-17 08:50 31.243536 -88.398548 61 33119ft 473kts
15-Jul-17 08:51 31.303779 -88.261375 61 33121ft 474kts
15-Jul-17 08:52 31.363815 -88.124168 61 33124ft 474kts
15-Jul-17 08:53 31.424020 -87.986068 61 33119ft 475kts
15-Jul-17 08:54 31.488285 -87.850940 53 33121ft 475kts
15-Jul-17 08:55 31.565248 -87.725464 52 33124ft 474kts
15-Jul-17 08:56 31.642019 -87.599131 52 33125ft 475kts
15-Jul-17 08:57 31.718571 -87.472826 53 32981ft 476kts
15-Jul-17 08:58 31.794880 -87.346501 53 32471ft 474kts
15-Jul-17 08:59 31.871489 -87.219258 53 31470ft 475kts
15-Jul-17 09:00 31.947764 -87.092160 53 30474ft 477kts
15-Jul-17 09:01 32.024281 -86.964224 53 29477ft 481kts
15-Jul-17 09:02 32.101595 -86.834522 53 28477ft 482kts
15-Jul-17 09:03 32.178648 -86.704820 53 27481ft 484kts
15-Jul-17 09:04 32.256008 -86.574155 53 26481ft 484kts
15-Jul-17 09:05 32.332956 -86.443715 54 25483ft 481kts
15-Jul-17 09:06 32.408621 -86.315016 54 24670ft 474kts
15-Jul-17 09:07 32.483329 -86.187501 54 24126ft 469kts
15-Jul-17 09:08 32.557657 -86.060201 54 24133ft 470kts
15-Jul-17 09:09 32.631838 -85.932755 54 23631ft 467kts
15-Jul-17 09:10 32.705292 -85.806054 54 22929ft 463kts
15-Jul-17 09:11 32.777541 -85.681050 54 21961ft 455kts
15-Jul-17 09:12 32.848435 -85.557992 55 20827ft 448kts
15-Jul-17 09:13 32.918101 -85.436737 55 19500ft 437kts
15-Jul-17 09:14 32.986512 -85.319675 54 18075ft 423kts
15-Jul-17 09:15 33.050387 -85.212468 54 16570ft 374kts
15-Jul-17 09:16 33.108254 -85.115099 54 15238ft 346kts
15-Jul-17 09:17 33.164081 -85.021433 52 15124ft 338kts
15-Jul-17 09:18 33.227494 -84.945809 43 14409ft 314kts
15-Jul-17 09:19 33.290716 -84.874718 43 13494ft 309kts
15-Jul-17 09:20 33.354277 -84.806561 32 12247ft 304kts
15-Jul-17 09:21 33.428884 -84.760858 26 10954ft 296kts
15-Jul-17 09:22 33.501322 -84.718276 26 9665ft 289kts
15-Jul-17 09:23 33.572123 -84.676556 26 8487ft 280kts
15-Jul-17 09:24 33.641675 -84.635509 26 7485ft 275kts
15-Jul-17 09:25 33.705723 -84.587640 47 6790ft 272kts
15-Jul-17 09:26 33.732323 -84.505461 86 6189ft 266kts
15-Jul-17 09:27 33.732836 -84.417261 89 5583ft 261kts
15-Jul-17 09:28 33.732762 -84.330132 89 4988ft 259kts
15-Jul-17 09:29 33.732831 -84.255764 89 4971ft 195kts
15-Jul-17 09:30 33.732894 -84.190657 89 4981ft 194kts
15-Jul-17 09:31 33.732913 -84.125802 90 4985ft 194kts
15-Jul-17 09:32 33.733011 -84.060692 89 4953ft 195kts
15-Jul-17 09:33 33.713465 -84.014313 185 4118ft 170kts
15-Jul-17 09:34 33.681151 -84.047970 223 5259ft 157kts
15-Jul-17 09:35 33.654980 -84.093796 253 5481ft 182kts
15-Jul-17 09:36 33.650117 -84.152685 268 4632ft 179kts
15-Jul-17 09:37 33.649804 -84.211721 268 3540ft 175kts
15-Jul-17 09:38 33.649741 -84.270199 268 2704ft 171kts
15-Jul-17 09:39 33.649667 -84.325662 268 2397ft 161kts
15-Jul-17 09:40 33.649616 -84.378712 268 1568ft 157kts
15-Jul-17 09:41 33.649639 -84.427813 267 1035ft 107kts
15-Jul-17 09:42 33.648313 -84.438019 214 1034ft 15kts
15-Jul-17 09:43 33.644582 -84.438041 158 1034ft 13kts
15-Jul-17 09:44 33.643449 -84.438591 270 1034ft 0kts
15-Jul-17 09:45 33.643449 -84.438663 270 1034ft 0kts
15-Jul-17 09:46 33.643449 -84.438663 270 1034ft 0kts
15-Jul-17 09:47 33.643449 -84.438663 270 1034ft 0kts
15-Jul-17 09:48 33.643449 -84.438663 270 1034ft 0kts
15-Jul-17 09:49 33.643449 -84.438663 270 1034ft 0kts
15-Jul-17 09:50 33.643449 -84.438663 270 1034ft 0kts
15-Jul-17 09:51 33.643449 -84.438663 270 1034ft 0kts
15-Jul-17 09:52 33.643449 -84.438663 270 1034ft 0kts
15-Jul-17 09:53 33.643449 -84.438663 270 1034ft 0kts
15-Jul-17 09:54 33.643449 -84.438663 270 1034ft 0kts
15-Jul-17 09:55 33.643449 -84.438663 270 1034ft 0kts
15-Jul-17 09:56 33.643449 -84.438663 270 1034ft 0kts

Navigation Log

Ident Type
Flight plan parsing failed, navigation log unavailable